sensor_id;sensor_type;location;lat;lon;timestamp;P1;durP1;ratioP1;P2;durP2;ratioP2
22378;SDS011;11357;49.990;7.370;2022-07-23T02:49:12;80.40;;;34.57;;
22378;SDS011;11357;49.990;7.370;2022-07-23T02:51:37;90.50;;;36.10;;
22378;SDS011;11357;49.990;7.370;2022-07-23T02:54:03;85.10;;;36.70;;
22378;SDS011;11357;49.990;7.370;2022-07-23T02:56:29;83.13;;;33.57;;
22378;SDS011;11357;49.990;7.370;2022-07-23T02:58:54;389.57;;;55.40;;
22378;SDS011;11357;49.990;7.370;2022-07-23T03:01:20;34.93;;;24.87;;
22378;SDS011;11357;49.990;7.370;2022-07-23T03:03:45;363.30;;;93.00;;
22378;SDS011;11357;49.990;7.370;2022-07-23T03:06:11;102.57;;;42.23;;
22378;SDS011;11357;49.990;7.370;2022-07-23T03:08:37;445.00;;;64.00;;
22378;SDS011;11357;49.990;7.370;2022-07-23T03:11:02;70.40;;;25.77;;
22378;SDS011;11357;49.990;7.370;2022-07-23T03:13:28;106.97;;;36.57;;
22378;SDS011;11357;49.990;7.370;2022-07-23T03:15:54;89.10;;;34.30;;
22378;SDS011;11357;49.990;7.370;2022-07-23T03:18:20;72.70;;;26.73;;
22378;SDS011;11357;49.990;7.370;2022-07-23T03:20:46;92.30;;;33.90;;
22378;SDS011;11357;49.990;7.370;2022-07-23T03:23:11;80.37;;;33.30;;
22378;SDS011;11357;49.990;7.370;2022-07-23T03:25:37;83.83;;;36.30;;
22378;SDS011;11357;49.990;7.370;2022-07-23T03:28:03;150.03;;;51.50;;
22378;SDS011;11357;49.990;7.370;2022-07-23T03:30:29;81.73;;;34.47;;
22378;SDS011;11357;49.990;7.370;2022-07-23T03:32:54;77.00;;;28.97;;
22378;SDS011;11357;49.990;7.370;2022-07-23T03:35:20;94.30;;;36.23;;
22378;SDS011;11357;49.990;7.370;2022-07-23T03:37:46;165.87;;;56.43;;
22378;SDS011;11357;49.990;7.370;2022-07-23T03:40:11;86.53;;;37.83;;
22378;SDS011;11357;49.990;7.370;2022-07-23T03:42:37;86.32;;;33.03;;
22378;SDS011;11357;49.990;7.370;2022-07-23T03:45:04;81.10;;;34.93;;
22378;SDS011;11357;49.990;7.370;2022-07-23T03:47:31;81.40;;;32.07;;
22378;SDS011;11357;49.990;7.370;2022-07-23T03:49:56;125.10;;;39.07;;
22378;SDS011;11357;49.990;7.370;2022-07-23T03:52:22;83.57;;;34.37;;
22378;SDS011;11357;49.990;7.370;2022-07-23T03:54:48;88.23;;;34.23;;
22378;SDS011;11357;49.990;7.370;2022-07-23T03:57:13;81.13;;;29.83;;
22378;SDS011;11357;49.990;7.370;2022-07-23T03:59:39;76.97;;;26.70;;
22378;SDS011;11357;49.990;7.370;2022-07-23T04:02:05;90.13;;;37.07;;
22378;SDS011;11357;49.990;7.370;2022-07-23T04:04:30;91.00;;;34.43;;
22378;SDS011;11357;49.990;7.370;2022-07-23T04:06:56;80.80;;;33.00;;
22378;SDS011;11357;49.990;7.370;2022-07-23T04:09:22;85.87;;;31.23;;
22378;SDS011;11357;49.990;7.370;2022-07-23T04:11:47;77.10;;;30.03;;
22378;SDS011;11357;49.990;7.370;2022-07-23T04:14:13;75.93;;;30.43;;
22378;SDS011;11357;49.990;7.370;2022-07-23T04:16:39;81.17;;;30.37;;
22378;SDS011;11357;49.990;7.370;2022-07-23T04:19:04;78.00;;;31.13;;
22378;SDS011;11357;49.990;7.370;2022-07-23T04:21:30;96.53;;;38.23;;
22378;SDS011;11357;49.990;7.370;2022-07-23T04:23:56;72.03;;;26.87;;
22378;SDS011;11357;49.990;7.370;2022-07-23T04:26:21;77.80;;;28.83;;
22378;SDS011;11357;49.990;7.370;2022-07-23T04:28:47;76.17;;;27.47;;
22378;SDS011;11357;49.990;7.370;2022-07-23T04:31:13;78.83;;;29.47;;
22378;SDS011;11357;49.990;7.370;2022-07-23T04:33:38;73.30;;;28.07;;
22378;SDS011;11357;49.990;7.370;2022-07-23T04:36:04;74.37;;;27.23;;
22378;SDS011;11357;49.990;7.370;2022-07-23T04:38:30;75.03;;;30.80;;
22378;SDS011;11357;49.990;7.370;2022-07-23T04:40:57;92.00;;;30.20;;
22378;SDS011;11357;49.990;7.370;2022-07-23T04:43:23;82.87;;;30.37;;
22378;SDS011;11357;49.990;7.370;2022-07-23T04:45:49;79.13;;;30.43;;
22378;SDS011;11357;49.990;7.370;2022-07-23T04:48:14;77.87;;;30.00;;
22378;SDS011;11357;49.990;7.370;2022-07-23T04:50:40;79.03;;;31.23;;
22378;SDS011;11357;49.990;7.370;2022-07-23T04:53:07;75.00;;;30.07;;
22378;SDS011;11357;49.990;7.370;2022-07-23T04:55:33;74.70;;;29.57;;
22378;SDS011;11357;49.990;7.370;2022-07-23T04:57:59;76.77;;;32.03;;
22378;SDS011;11357;49.990;7.370;2022-07-23T05:00:24;78.80;;;28.73;;
22378;SDS011;11357;49.990;7.370;2022-07-23T05:02:50;82.90;;;32.58;;
22378;SDS011;11357;49.990;7.370;2022-07-23T05:05:16;81.07;;;33.63;;
22378;SDS011;11357;49.990;7.370;2022-07-23T05:07:41;80.43;;;33.37;;
22378;SDS011;11357;49.990;7.370;2022-07-23T05:10:07;87.00;;;35.53;;
22378;SDS011;11357;49.990;7.370;2022-07-23T05:12:33;95.23;;;36.47;;
22378;SDS011;11357;49.990;7.370;2022-07-23T05:14:59;102.67;;;32.87;;
22378;SDS011;11357;49.990;7.370;2022-07-23T05:17:24;77.43;;;29.00;;
22378;SDS011;11357;49.990;7.370;2022-07-23T05:19:50;79.20;;;29.53;;
22378;SDS011;11357;49.990;7.370;2022-07-23T05:22:16;75.90;;;34.73;;
22378;SDS011;11357;49.990;7.370;2022-07-23T05:24:41;101.30;;;33.47;;
22378;SDS011;11357;49.990;7.370;2022-07-23T05:27:08;97.75;;;39.80;;
22378;SDS011;11357;49.990;7.370;2022-07-23T05:29:33;74.30;;;26.37;;
22378;SDS011;11357;49.990;7.370;2022-07-23T05:31:59;94.97;;;31.37;;
22378;SDS011;11357;49.990;7.370;2022-07-23T05:34:25;78.70;;;28.30;;
22378;SDS011;11357;49.990;7.370;2022-07-23T05:36:50;77.80;;;36.70;;
22378;SDS011;11357;49.990;7.370;2022-07-23T05:39:16;97.03;;;32.93;;
22378;SDS011;11357;49.990;7.370;2022-07-23T05:41:42;78.95;;;32.80;;
22378;SDS011;11357;49.990;7.370;2022-07-23T05:44:08;403.83;;;85.35;;
22378;SDS011;11357;49.990;7.370;2022-07-23T05:46:34;77.95;;;34.05;;
22378;SDS011;11357;49.990;7.370;2022-07-23T05:48:59;80.95;;;31.75;;
22378;SDS011;11357;49.990;7.370;2022-07-23T05:51:25;206.05;;;54.83;;
22378;SDS011;11357;49.990;7.370;2022-07-23T05:53:51;75.38;;;32.80;;
22378;SDS011;11357;49.990;7.370;2022-07-23T05:56:17;107.13;;;36.10;;
22378;SDS011;11357;49.990;7.370;2022-07-23T05:58:43;78.07;;;24.95;;
22378;SDS011;11357;49.990;7.370;2022-07-23T06:01:09;180.00;;;70.15;;
22378;SDS011;11357;49.990;7.370;2022-07-23T06:03:36;117.32;;;43.13;;
22378;SDS011;11357;49.990;7.370;2022-07-23T06:06:03;82.70;;;32.33;;
22378;SDS011;11357;49.990;7.370;2022-07-23T06:08:29;83.05;;;32.67;;
22378;SDS011;11357;49.990;7.370;2022-07-23T06:10:55;82.63;;;31.85;;
22378;SDS011;11357;49.990;7.370;2022-07-23T06:13:20;74.45;;;29.77;;
22378;SDS011;11357;49.990;7.370;2022-07-23T06:15:46;44.15;;;20.95;;
22378;SDS011;11357;49.990;7.370;2022-07-23T06:18:12;74.88;;;29.92;;
22378;SDS011;11357;49.990;7.370;2022-07-23T06:20:38;28.23;;;17.92;;
22378;SDS011;11357;49.990;7.370;2022-07-23T06:23:03;82.85;;;31.92;;
22378;SDS011;11357;49.990;7.370;2022-07-23T06:25:29;93.68;;;28.98;;
22378;SDS011;11357;49.990;7.370;2022-07-23T06:27:55;99.70;;;41.03;;
22378;SDS011;11357;49.990;7.370;2022-07-23T06:30:20;84.03;;;27.80;;
22378;SDS011;11357;49.990;7.370;2022-07-23T06:32:46;75.05;;;32.00;;
22378;SDS011;11357;49.990;7.370;2022-07-23T06:35:13;72.30;;;30.83;;
22378;SDS011;11357;49.990;7.370;2022-07-23T06:37:39;80.05;;;26.92;;
22378;SDS011;11357;49.990;7.370;2022-07-23T06:40:05;81.60;;;34.55;;
22378;SDS011;11357;49.990;7.370;2022-07-23T06:42:31;100.50;;;33.33;;
22378;SDS011;11357;49.990;7.370;2022-07-23T06:44:56;177.52;;;53.45;;
22378;SDS011;11357;49.990;7.370;2022-07-23T06:47:22;96.72;;;38.20;;
22378;SDS011;11357;49.990;7.370;2022-07-23T06:49:48;190.10;;;69.65;;
22378;SDS011;11357;49.990;7.370;2022-07-23T06:52:14;168.80;;;61.28;;
22378;SDS011;11357;49.990;7.370;2022-07-23T06:54:40;699.35;;;273.10;;
22378;SDS011;11357;49.990;7.370;2022-07-23T06:57:06;154.57;;;85.35;;
22378;SDS011;11357;49.990;7.370;2022-07-23T06:59:31;141.70;;;90.57;;
22378;SDS011;11357;49.990;7.370;2022-07-23T07:01:58;474.05;;;428.17;;
22378;SDS011;11357;49.990;7.370;2022-07-23T07:04:24;1661.55;;;624.90;;
22378;SDS011;11357;49.990;7.370;2022-07-23T07:06:50;1978.75;;;960.72;;
22378;SDS011;11357;49.990;7.370;2022-07-23T07:09:15;1999.90;;;999.90;;
22378;SDS011;11357;49.990;7.370;2022-07-23T07:11:41;1999.90;;;996.10;;
22378;SDS011;11357;49.990;7.370;2022-07-23T07:14:07;1531.65;;;913.67;;
22378;SDS011;11357;49.990;7.370;2022-07-23T07:16:32;750.28;;;501.98;;
22378;SDS011;11357;49.990;7.370;2022-07-23T07:18:58;1326.35;;;716.92;;
22378;SDS011;11357;49.990;7.370;2022-07-23T07:21:24;859.50;;;660.00;;
22378;SDS011;11357;49.990;7.370;2022-07-23T07:23:49;425.88;;;352.55;;
22378;SDS011;11357;49.990;7.370;2022-07-23T07:26:15;442.52;;;392.00;;
22378;SDS011;11357;49.990;7.370;2022-07-23T07:28:41;781.15;;;622.67;;
22378;SDS011;11357;49.990;7.370;2022-07-23T07:31:06;538.17;;;366.70;;
22378;SDS011;11357;49.990;7.370;2022-07-23T07:33:32;756.50;;;610.97;;
22378;SDS011;11357;49.990;7.370;2022-07-23T07:35:58;627.25;;;534.65;;
22378;SDS011;11357;49.990;7.370;2022-07-23T07:38:23;924.63;;;762.13;;
22378;SDS011;11357;49.990;7.370;2022-07-23T07:40:49;1060.80;;;784.53;;
22378;SDS011;11357;49.990;7.370;2022-07-23T07:43:15;805.67;;;591.50;;
22378;SDS011;11357;49.990;7.370;2022-07-23T07:45:41;732.03;;;631.28;;
22378;SDS011;11357;49.990;7.370;2022-07-23T07:48:06;975.95;;;715.70;;
22378;SDS011;11357;49.990;7.370;2022-07-23T07:50:32;1999.90;;;873.33;;
22378;SDS011;11357;49.990;7.370;2022-07-23T07:52:58;1991.93;;;955.47;;
22378;SDS011;11357;49.990;7.370;2022-07-23T07:55:24;981.53;;;756.00;;
22378;SDS011;11357;49.990;7.370;2022-07-23T07:57:49;1236.20;;;771.42;;
22378;SDS011;11357;49.990;7.370;2022-07-23T08:00:15;1972.57;;;901.35;;
22378;SDS011;11357;49.990;7.370;2022-07-23T08:05:14;1704.10;;;729.72;;
22378;SDS011;11357;49.990;7.370;2022-07-23T08:07:48;1087.90;;;857.60;;
22378;SDS011;11357;49.990;7.370;2022-07-23T08:10:13;956.05;;;764.30;;
22378;SDS011;11357;49.990;7.370;2022-07-23T08:15:10;1133.55;;;793.10;;
22378;SDS011;11357;49.990;7.370;2022-07-23T08:17:37;1244.30;;;891.30;;
22378;SDS011;11357;49.990;7.370;2022-07-23T08:20:04;999.13;;;809.58;;
22378;SDS011;11357;49.990;7.370;2022-07-23T08:22:52;1999.90;;;915.22;;
22378;SDS011;11357;49.990;7.370;2022-07-23T08:25:19;1999.90;;;869.58;;
22378;SDS011;11357;49.990;7.370;2022-07-23T08:27:52;1995.88;;;999.90;;
22378;SDS011;11357;49.990;7.370;2022-07-23T08:30:18;1999.90;;;860.08;;
22378;SDS011;11357;49.990;7.370;2022-07-23T08:35:13;1999.90;;;650.53;;
22378;SDS011;11357;49.990;7.370;2022-07-23T08:37:39;1999.90;;;828.35;;
22378;SDS011;11357;49.990;7.370;2022-07-23T08:40:05;1999.90;;;974.70;;
22378;SDS011;11357;49.990;7.370;2022-07-23T08:42:31;1999.90;;;920.97;;
22378;SDS011;11357;49.990;7.370;2022-07-23T08:45:00;1999.90;;;596.28;;
22378;SDS011;11357;49.990;7.370;2022-07-23T08:47:28;1999.90;;;999.90;;
22378;SDS011;11357;49.990;7.370;2022-07-23T08:49:55;1999.90;;;999.90;;
22378;SDS011;11357;49.990;7.370;2022-07-23T08:52:21;1999.90;;;831.42;;
22378;SDS011;11357;49.990;7.370;2022-07-23T08:54:48;1999.90;;;999.90;;
22378;SDS011;11357;49.990;7.370;2022-07-23T08:57:14;1999.90;;;999.90;;
22378;SDS011;11357;49.990;7.370;2022-07-23T08:59:40;1999.90;;;999.90;;
22378;SDS011;11357;49.990;7.370;2022-07-23T09:02:06;1999.90;;;840.92;;
22378;SDS011;11357;49.990;7.370;2022-07-23T09:04:31;1999.90;;;844.15;;
22378;SDS011;11357;49.990;7.370;2022-07-23T09:06:57;1999.90;;;949.95;;
22378;SDS011;11357;49.990;7.370;2022-07-23T09:09:24;1999.90;;;993.58;;
22378;SDS011;11357;49.990;7.370;2022-07-23T09:17:15;1265.55;;;706.47;;
22378;SDS011;11357;49.990;7.370;2022-07-23T09:19:42;797.67;;;537.03;;
22378;SDS011;11357;49.990;7.370;2022-07-23T09:22:16;1756.35;;;749.88;;
22378;SDS011;11357;49.990;7.370;2022-07-23T09:25:08;1999.90;;;830.38;;
22378;SDS011;11357;49.990;7.370;2022-07-23T09:27:55;1879.38;;;728.45;;
22378;SDS011;11357;49.990;7.370;2022-07-23T09:30:23;1800.68;;;888.47;;
22378;SDS011;11357;49.990;7.370;2022-07-23T09:33:09;1678.90;;;926.15;;
22378;SDS011;11357;49.990;7.370;2022-07-23T09:35:49;594.45;;;544.05;;
22378;SDS011;11357;49.990;7.370;2022-07-23T09:38:18;1238.85;;;576.42;;
22378;SDS011;11357;49.990;7.370;2022-07-23T09:40:45;510.98;;;470.55;;
22378;SDS011;11357;49.990;7.370;2022-07-23T09:43:12;439.35;;;402.00;;
22378;SDS011;11357;49.990;7.370;2022-07-23T09:45:51;448.98;;;413.73;;
22378;SDS011;11357;49.990;7.370;2022-07-23T09:48:17;406.65;;;375.02;;
22378;SDS011;11357;49.990;7.370;2022-07-23T09:50:43;578.70;;;530.38;;
22378;SDS011;11357;49.990;7.370;2022-07-23T09:53:10;407.60;;;372.70;;
22378;SDS011;11357;49.990;7.370;2022-07-23T09:55:49;447.77;;;410.48;;
22378;SDS011;11357;49.990;7.370;2022-07-23T09:58:17;529.80;;;486.00;;
22378;SDS011;11357;49.990;7.370;2022-07-23T10:00:47;313.27;;;289.83;;
22378;SDS011;11357;49.990;7.370;2022-07-23T10:03:14;414.55;;;381.05;;
22378;SDS011;11357;49.990;7.370;2022-07-23T10:05:42;278.77;;;259.52;;
22378;SDS011;11357;49.990;7.370;2022-07-23T10:08:10;27.27;;;25.40;;
22378;SDS011;11357;49.990;7.370;2022-07-23T10:10:40;163.75;;;153.80;;
22378;SDS011;11357;49.990;7.370;2022-07-23T10:13:10;168.27;;;156.50;;
22378;SDS011;11357;49.990;7.370;2022-07-23T10:15:55;187.05;;;175.02;;
22378;SDS011;11357;49.990;7.370;2022-07-23T10:18:21;19.80;;;18.17;;
22378;SDS011;11357;49.990;7.370;2022-07-23T10:20:52;10.23;;;9.05;;
22378;SDS011;11357;49.990;7.370;2022-07-23T10:23:30;52.85;;;49.58;;
22378;SDS011;11357;49.990;7.370;2022-07-23T10:26:41;71.63;;;67.47;;
22378;SDS011;11357;49.990;7.370;2022-07-23T10:32:05;96.15;;;90.25;;
22378;SDS011;11357;49.990;7.370;2022-07-23T10:37:32;48.05;;;44.85;;
22378;SDS011;11357;49.990;7.370;2022-07-23T10:40:21;61.13;;;57.58;;
22378;SDS011;11357;49.990;7.370;2022-07-23T10:42:52;1765.35;;;448.52;;
22378;SDS011;11357;49.990;7.370;2022-07-23T10:45:42;170.75;;;159.88;;
22378;SDS011;11357;49.990;7.370;2022-07-23T10:48:15;96.28;;;90.80;;
22378;SDS011;11357;49.990;7.370;2022-07-23T10:54:01;353.15;;;326.33;;
22378;SDS011;11357;49.990;7.370;2022-07-23T10:59:19;120.22;;;113.50;;
22378;SDS011;11357;49.990;7.370;2022-07-23T11:01:45;60.33;;;56.72;;
22378;SDS011;11357;49.990;7.370;2022-07-23T11:04:11;264.73;;;245.77;;
22378;SDS011;11357;49.990;7.370;2022-07-23T11:17:27;28.90;;;27.08;;
22378;SDS011;11357;49.990;7.370;2022-07-23T11:25:09;11.35;;;10.20;;
22378;SDS011;11357;49.990;7.370;2022-07-23T11:28:07;20.63;;;19.30;;
22378;SDS011;11357;49.990;7.370;2022-07-23T11:35:36;12.70;;;9.20;;
22378;SDS011;11357;49.990;7.370;2022-07-23T11:38:04;38.80;;;36.20;;
22378;SDS011;11357;49.990;7.370;2022-07-23T11:40:30;16.20;;;14.93;;
22378;SDS011;11357;49.990;7.370;2022-07-23T11:45:34;7.32;;;6.60;;
22378;SDS011;11357;49.990;7.370;2022-07-23T11:48:08;8.23;;;7.43;;
22378;SDS011;11357;49.990;7.370;2022-07-23T11:50:40;9.48;;;6.93;;
22378;SDS011;11357;49.990;7.370;2022-07-23T11:53:06;14.52;;;12.43;;
22378;SDS011;11357;49.990;7.370;2022-07-23T11:55:31;12.02;;;10.93;;
22378;SDS011;11357;49.990;7.370;2022-07-23T11:57:57;11.65;;;10.85;;
22378;SDS011;11357;49.990;7.370;2022-07-23T12:00:24;25.15;;;23.02;;
22378;SDS011;11357;49.990;7.370;2022-07-23T12:02:53;31.17;;;28.70;;
22378;SDS011;11357;49.990;7.370;2022-07-23T12:05:27;22.55;;;20.83;;
22378;SDS011;11357;49.990;7.370;2022-07-23T12:07:59;29.40;;;27.52;;
22378;SDS011;11357;49.990;7.370;2022-07-23T12:10:28;19.17;;;17.73;;
22378;SDS011;11357;49.990;7.370;2022-07-23T12:13:06;25.67;;;23.90;;
22378;SDS011;11357;49.990;7.370;2022-07-23T12:15:36;26.50;;;24.60;;
22378;SDS011;11357;49.990;7.370;2022-07-23T12:18:08;15.82;;;14.68;;
22378;SDS011;11357;49.990;7.370;2022-07-23T12:20:36;78.65;;;74.13;;
22378;SDS011;11357;49.990;7.370;2022-07-23T12:23:07;66.93;;;63.28;;
22378;SDS011;11357;49.990;7.370;2022-07-23T12:25:37;27.38;;;25.65;;
22378;SDS011;11357;49.990;7.370;2022-07-23T12:28:06;16.50;;;15.30;;
22378;SDS011;11357;49.990;7.370;2022-07-23T12:30:37;12.00;;;11.00;;
22378;SDS011;11357;49.990;7.370;2022-07-23T12:33:11;8.65;;;7.63;;
22378;SDS011;11357;49.990;7.370;2022-07-23T12:35:47;7.80;;;6.28;;
22378;SDS011;11357;49.990;7.370;2022-07-23T12:38:14;6.47;;;5.93;;
22378;SDS011;11357;49.990;7.370;2022-07-23T12:43:23;7.30;;;6.60;;
22378;SDS011;11357;49.990;7.370;2022-07-23T12:48:32;7.05;;;6.15;;
22378;SDS011;11357;49.990;7.370;2022-07-23T12:53:28;7.65;;;7.07;;
22378;SDS011;11357;49.990;7.370;2022-07-23T12:58:40;9.27;;;8.38;;
22378;SDS011;11357;49.990;7.370;2022-07-23T13:01:28;8.10;;;5.53;;
22378;SDS011;11357;49.990;7.370;2022-07-23T13:06:44;7.55;;;4.88;;
22378;SDS011;11357;49.990;7.370;2022-07-23T13:09:15;7.57;;;5.38;;
22378;SDS011;11357;49.990;7.370;2022-07-23T13:11:46;6.85;;;5.18;;
22378;SDS011;11357;49.990;7.370;2022-07-23T13:14:13;9.73;;;4.55;;
22378;SDS011;11357;49.990;7.370;2022-07-23T13:16:41;7.55;;;4.90;;
22378;SDS011;11357;49.990;7.370;2022-07-23T13:19:09;6.63;;;4.80;;
22378;SDS011;11357;49.990;7.370;2022-07-23T13:21:34;6.70;;;5.22;;
22378;SDS011;11357;49.990;7.370;2022-07-23T13:24:00;8.77;;;6.38;;
22378;SDS011;11357;49.990;7.370;2022-07-23T13:26:26;7.65;;;5.32;;
22378;SDS011;11357;49.990;7.370;2022-07-23T13:28:52;9.48;;;4.95;;
22378;SDS011;11357;49.990;7.370;2022-07-23T13:31:23;7.03;;;4.88;;
22378;SDS011;11357;49.990;7.370;2022-07-23T13:33:54;5.60;;;4.82;;
22378;SDS011;11357;49.990;7.370;2022-07-23T13:36:45;5.53;;;5.03;;
22378;SDS011;11357;49.990;7.370;2022-07-23T13:40:14;7.72;;;4.95;;
22378;SDS011;11357;49.990;7.370;2022-07-23T13:46:53;7.63;;;4.57;;
22378;SDS011;11357;49.990;7.370;2022-07-23T13:53:47;5.00;;;4.45;;
22378;SDS011;11357;49.990;7.370;2022-07-23T13:56:13;7.47;;;6.35;;
22378;SDS011;11357;49.990;7.370;2022-07-23T13:58:39;6.97;;;4.78;;
22378;SDS011;11357;49.990;7.370;2022-07-23T14:01:05;4.90;;;4.40;;
22378;SDS011;11357;49.990;7.370;2022-07-23T14:03:31;5.88;;;4.40;;
22378;SDS011;11357;49.990;7.370;2022-07-23T14:05:57;7.20;;;4.30;;
22378;SDS011;11357;49.990;7.370;2022-07-23T14:08:24;8.23;;;4.18;;
22378;SDS011;11357;49.990;7.370;2022-07-23T14:10:49;6.75;;;4.05;;
22378;SDS011;11357;49.990;7.370;2022-07-23T14:13:15;6.72;;;4.40;;
22378;SDS011;11357;49.990;7.370;2022-07-23T14:15:41;7.28;;;4.43;;
22378;SDS011;11357;49.990;7.370;2022-07-23T14:18:07;7.43;;;4.00;;
22378;SDS011;11357;49.990;7.370;2022-07-23T14:20:32;8.25;;;4.97;;
22378;SDS011;11357;49.990;7.370;2022-07-23T14:22:58;7.78;;;4.93;;
22378;SDS011;11357;49.990;7.370;2022-07-23T14:25:25;7.18;;;6.60;;
22378;SDS011;11357;49.990;7.370;2022-07-23T14:27:51;5.35;;;4.85;;
22378;SDS011;11357;49.990;7.370;2022-07-23T14:30:17;8.43;;;6.80;;
22378;SDS011;11357;49.990;7.370;2022-07-23T14:32:42;7.75;;;7.05;;
22378;SDS011;11357;49.990;7.370;2022-07-23T14:35:08;7.15;;;6.53;;
22378;SDS011;11357;49.990;7.370;2022-07-23T14:37:34;9.15;;;8.38;;
22378;SDS011;11357;49.990;7.370;2022-07-23T14:39:59;12.23;;;11.20;;
22378;SDS011;11357;49.990;7.370;2022-07-23T14:42:25;14.65;;;13.38;;
22378;SDS011;11357;49.990;7.370;2022-07-23T14:44:51;17.65;;;16.30;;
22378;SDS011;11357;49.990;7.370;2022-07-23T14:47:17;17.38;;;16.20;;
22378;SDS011;11357;49.990;7.370;2022-07-23T14:49:43;13.70;;;12.85;;
22378;SDS011;11357;49.990;7.370;2022-07-23T14:52:08;86.00;;;80.72;;
22378;SDS011;11357;49.990;7.370;2022-07-23T14:54:34;9.13;;;8.43;;
22378;SDS011;11357;49.990;7.370;2022-07-23T14:57:01;9.40;;;8.65;;
22378;SDS011;11357;49.990;7.370;2022-07-23T14:59:28;32.08;;;29.85;;
22378;SDS011;11357;49.990;7.370;2022-07-23T15:01:55;42.10;;;38.90;;
22378;SDS011;11357;49.990;7.370;2022-07-23T15:04:21;71.13;;;66.78;;
22378;SDS011;11357;49.990;7.370;2022-07-23T15:06:47;115.75;;;108.97;;
22378;SDS011;11357;49.990;7.370;2022-07-23T15:09:13;82.85;;;77.25;;
22378;SDS011;11357;49.990;7.370;2022-07-23T15:11:39;42.17;;;39.25;;
22378;SDS011;11357;49.990;7.370;2022-07-23T15:14:05;22.75;;;21.35;;
22378;SDS011;11357;49.990;7.370;2022-07-23T15:16:31;87.07;;;82.15;;
22378;SDS011;11357;49.990;7.370;2022-07-23T15:18:58;78.47;;;74.13;;
22378;SDS011;11357;49.990;7.370;2022-07-23T15:21:24;17.75;;;16.60;;
22378;SDS011;11357;49.990;7.370;2022-07-23T15:23:50;119.43;;;112.47;;
22378;SDS011;11357;49.990;7.370;2022-07-23T15:26:17;67.10;;;62.88;;
22378;SDS011;11357;49.990;7.370;2022-07-23T15:28:43;58.70;;;54.88;;
22378;SDS011;11357;49.990;7.370;2022-07-23T15:31:09;54.80;;;51.75;;
22378;SDS011;11357;49.990;7.370;2022-07-23T15:33:35;51.03;;;47.17;;
22378;SDS011;11357;49.990;7.370;2022-07-23T15:36:02;21.83;;;20.17;;
22378;SDS011;11357;49.990;7.370;2022-07-23T15:38:28;22.67;;;21.17;;
22378;SDS011;11357;49.990;7.370;2022-07-23T15:40:54;28.92;;;27.08;;
22378;SDS011;11357;49.990;7.370;2022-07-23T15:43:24;30.30;;;28.40;;
22378;SDS011;11357;49.990;7.370;2022-07-23T15:45:50;105.40;;;98.43;;
22378;SDS011;11357;49.990;7.370;2022-07-23T15:48:17;31.33;;;29.40;;
22378;SDS011;11357;49.990;7.370;2022-07-23T15:50:44;46.50;;;43.83;;
22378;SDS011;11357;49.990;7.370;2022-07-23T15:53:10;72.03;;;67.90;;
22378;SDS011;11357;49.990;7.370;2022-07-23T15:55:36;55.35;;;51.97;;
22378;SDS011;11357;49.990;7.370;2022-07-23T15:58:03;70.03;;;65.97;;
22378;SDS011;11357;49.990;7.370;2022-07-23T16:00:29;33.13;;;31.23;;
22378;SDS011;11357;49.990;7.370;2022-07-23T16:02:55;31.52;;;29.48;;
22378;SDS011;11357;49.990;7.370;2022-07-23T16:05:21;20.60;;;19.10;;
22378;SDS011;11357;49.990;7.370;2022-07-23T16:07:55;45.17;;;42.58;;
22378;SDS011;11357;49.990;7.370;2022-07-23T16:10:21;17.98;;;16.67;;
22378;SDS011;11357;49.990;7.370;2022-07-23T16:12:47;35.25;;;33.00;;
22378;SDS011;11357;49.990;7.370;2022-07-23T16:15:13;125.25;;;117.88;;
22378;SDS011;11357;49.990;7.370;2022-07-23T16:17:39;35.97;;;33.53;;
22378;SDS011;11357;49.990;7.370;2022-07-23T16:20:05;241.50;;;222.02;;
22378;SDS011;11357;49.990;7.370;2022-07-23T16:22:34;115.45;;;108.30;;
22378;SDS011;11357;49.990;7.370;2022-07-23T16:25:00;118.90;;;112.05;;
22378;SDS011;11357;49.990;7.370;2022-07-23T16:27:26;60.05;;;56.50;;
22378;SDS011;11357;49.990;7.370;2022-07-23T16:29:52;59.22;;;55.72;;
22378;SDS011;11357;49.990;7.370;2022-07-23T16:32:18;179.95;;;168.98;;
22378;SDS011;11357;49.990;7.370;2022-07-23T16:34:43;290.48;;;270.63;;
22378;SDS011;11357;49.990;7.370;2022-07-23T16:37:09;181.88;;;170.77;;
22378;SDS011;11357;49.990;7.370;2022-07-23T16:39:35;426.65;;;393.77;;
22378;SDS011;11357;49.990;7.370;2022-07-23T16:42:02;274.60;;;254.40;;
22378;SDS011;11357;49.990;7.370;2022-07-23T16:44:28;353.15;;;327.15;;
22378;SDS011;11357;49.990;7.370;2022-07-23T16:46:53;388.85;;;359.38;;
22378;SDS011;11357;49.990;7.370;2022-07-23T16:49:19;409.73;;;378.20;;
22378;SDS011;11357;49.990;7.370;2022-07-23T16:51:45;558.10;;;514.33;;
22378;SDS011;11357;49.990;7.370;2022-07-23T16:54:11;544.90;;;501.95;;
22378;SDS011;11357;49.990;7.370;2022-07-23T16:56:36;648.05;;;595.17;;
22378;SDS011;11357;49.990;7.370;2022-07-23T16:59:02;739.92;;;675.72;;
22378;SDS011;11357;49.990;7.370;2022-07-23T17:01:28;541.85;;;498.33;;
22378;SDS011;11357;49.990;7.370;2022-07-23T17:03:54;511.80;;;470.92;;
22378;SDS011;11357;49.990;7.370;2022-07-23T17:06:20;427.65;;;393.88;;
22378;SDS011;11357;49.990;7.370;2022-07-23T17:08:45;554.70;;;510.23;;
22378;SDS011;11357;49.990;7.370;2022-07-23T17:11:11;494.05;;;451.80;;
22378;SDS011;11357;49.990;7.370;2022-07-23T17:13:37;585.97;;;538.45;;
22378;SDS011;11357;49.990;7.370;2022-07-23T17:16:03;447.25;;;410.55;;
22378;SDS011;11357;49.990;7.370;2022-07-23T17:18:29;557.40;;;511.80;;
22378;SDS011;11357;49.990;7.370;2022-07-23T17:20:54;561.72;;;514.92;;
22378;SDS011;11357;49.990;7.370;2022-07-23T17:23:20;811.22;;;734.90;;
22378;SDS011;11357;49.990;7.370;2022-07-23T17:25:46;763.30;;;687.95;;
22378;SDS011;11357;49.990;7.370;2022-07-23T17:28:12;1116.03;;;733.10;;
22378;SDS011;11357;49.990;7.370;2022-07-23T17:30:38;749.55;;;671.97;;
22378;SDS011;11357;49.990;7.370;2022-07-23T17:33:04;826.13;;;745.20;;
22378;SDS011;11357;49.990;7.370;2022-07-23T17:35:29;832.15;;;608.15;;
22378;SDS011;11357;49.990;7.370;2022-07-23T17:37:55;852.83;;;760.50;;
22378;SDS011;11357;49.990;7.370;2022-07-23T17:40:21;1113.00;;;829.30;;
22378;SDS011;11357;49.990;7.370;2022-07-23T17:42:47;1308.05;;;721.72;;
22378;SDS011;11357;49.990;7.370;2022-07-23T17:45:13;1075.70;;;791.90;;
22378;SDS011;11357;49.990;7.370;2022-07-23T17:47:42;1148.93;;;574.42;;
22378;SDS011;11357;49.990;7.370;2022-07-23T17:50:09;964.05;;;805.97;;
22378;SDS011;11357;49.990;7.370;2022-07-23T17:52:52;1254.88;;;705.13;;
22378;SDS011;11357;49.990;7.370;2022-07-23T17:55:19;1999.90;;;934.92;;
22378;SDS011;11357;49.990;7.370;2022-07-23T17:57:46;1884.03;;;809.15;;
22378;SDS011;11357;49.990;7.370;2022-07-23T18:00:12;1999.90;;;936.58;;
22378;SDS011;11357;49.990;7.370;2022-07-23T18:02:39;1999.90;;;981.13;;
22378;SDS011;11357;49.990;7.370;2022-07-23T18:05:05;1996.82;;;948.80;;
22378;SDS011;11357;49.990;7.370;2022-07-23T18:07:32;1891.13;;;922.50;;
22378;SDS011;11357;49.990;7.370;2022-07-23T18:09:58;1999.90;;;999.90;;
22378;SDS011;11357;49.990;7.370;2022-07-23T18:12:24;1999.90;;;999.90;;
22378;SDS011;11357;49.990;7.370;2022-07-23T18:14:51;1999.90;;;871.75;;